Time;durP1;ratioP1;P1;durP2;ratioP2;P2;SDS_P1;SDS_P2;PMS_P1;PMS_P2;Temp;Humidity;BMP_temperature;BMP_pressure;BME280_temperature;BME280_humidity;BME280_pressure;Samples;Min_cycle;Max_cycle;Signal;HPM_P1;HPM_P2
2022/10/06 00:01:05;;;;;;;6.38;3.40;;;13.40;68.00;;;;;;5109367;28;20432;-74
2022/10/06 00:03:31;;;;;;;12.35;4.72;;;13.40;68.00;;;;;;5104828;28;20019;-75
2022/10/06 00:06:01;;;;;;;7.65;4.60;;;13.40;68.20;;;;;;5095906;28;20020;-76
2022/10/06 00:08:29;;;;;;;14.32;4.80;;;13.40;68.40;;;;;;5112991;28;20031;-75
2022/10/06 00:10:55;;;;;;;8.95;4.57;;;13.40;68.50;;;;;;5099649;28;20376;-76
2022/10/06 00:13:23;;;;;;;11.43;3.90;;;13.40;68.80;;;;;;5103748;28;20020;-73
2022/10/06 00:15:49;;;;;;;6.72;3.60;;;13.40;68.90;;;;;;5112208;28;20467;-76
2022/10/06 00:18:14;;;;;;;7.30;3.53;;;13.40;68.60;;;;;;5098852;28;20024;-75
2022/10/06 00:20:42;;;;;;;11.23;4.47;;;13.30;68.30;;;;;;5095523;28;20027;-76
2022/10/06 00:23:08;;;;;;;7.72;4.20;;;13.30;68.40;;;;;;5094518;28;20028;-74
2022/10/06 00:25:34;;;;;;;6.60;3.63;;;13.30;68.50;;;;;;5095613;28;20478;-77
2022/10/06 00:28:00;;;;;;;5.93;3.00;;;13.30;68.30;;;;;;5095601;28;20076;-73
2022/10/06 00:30:29;;;;;;;10.23;3.88;;;13.30;68.30;;;;;;5095283;28;20051;-76
2022/10/06 00:33:00;;;;;;;8.80;3.83;;;13.20;69.00;;;;;;5094661;28;20051;-78
2022/10/06 00:35:31;;;;;;;7.20;4.28;;;13.20;68.40;;;;;;5074867;28;20048;-76
2022/10/06 00:37:57;;;;;;;6.80;3.10;;;13.20;68.40;;;;;;5074847;28;20020;-75
2022/10/06 00:40:23;;;;;;;4.60;2.95;;;13.20;68.30;;;;;;5074824;28;20195;-77
2022/10/06 00:43:05;;;;;;;6.55;3.83;;;13.20;68.20;;;;;;5075189;28;20096;-72
2022/10/06 00:45:41;;;;;;;7.45;3.92;;;13.10;68.30;;;;;;5073251;28;20032;-75
2022/10/06 00:48:13;;;;;;;8.48;4.00;;;13.10;68.20;;;;;;5073602;28;20029;-76
2022/10/06 00:50:40;;;;;;;4.55;3.70;;;13.10;68.40;;;;;;5075054;28;20017;-74
2022/10/06 00:53:06;;;;;;;8.38;3.65;;;13.10;68.40;;;;;;5074590;28;20055;-77
2022/10/06 00:55:32;;;;;;;4.95;3.60;;;13.10;68.40;;;;;;5074483;28;20025;-76
2022/10/06 00:57:59;;;;;;;8.05;4.30;;;13.00;68.30;;;;;;5074366;28;20029;-75
2022/10/06 01:00:25;;;;;;;6.75;3.53;;;13.00;68.50;;;;;;5074308;28;20478;-79
2022/10/06 01:02:56;;;;;;;7.00;3.80;;;13.00;68.60;;;;;;5074733;28;20028;-76
2022/10/06 01:05:31;;;;;;;6.55;4.00;;;13.00;68.60;;;;;;5094449;28;20028;-77
2022/10/06 01:07:57;;;;;;;10.05;3.55;;;13.00;68.60;;;;;;5093035;28;20436;-75
2022/10/06 01:10:22;;;;;;;5.22;3.28;;;13.00;69.20;;;;;;5093304;28;20116;-73
2022/10/06 01:12:48;;;;;;;12.50;4.03;;;13.00;68.50;;;;;;5094094;28;20030;-75
2022/10/06 01:15:15;;;;;;;5.90;3.35;;;12.90;68.50;;;;;;5094125;28;20034;-76
2022/10/06 01:18:07;;;;;;;8.05;3.65;;;12.90;68.50;;;;;;5094135;28;20016;-79
2022/10/06 01:20:35;;;;;;;7.07;3.22;;;12.90;68.60;;;;;;5094023;28;20096;-77
2022/10/06 01:23:04;;;;;;;8.52;3.25;;;12.90;68.40;;;;;;5093887;28;20016;-75
2022/10/06 01:25:32;;;;;;;9.88;3.67;;;12.90;68.60;;;;;;5093589;28;20023;-74
2022/10/06 01:28:00;;;;;;;5.32;3.38;;;12.90;68.70;;;;;;5093588;28;20054;-75
2022/10/06 01:30:44;;;;;;;10.32;3.97;;;12.80;68.80;;;;;;5094057;28;20062;-77
2022/10/06 01:33:10;;;;;;;14.80;4.32;;;12.80;69.80;;;;;;5091976;28;20089;-78
2022/10/06 01:35:36;;;;;;;7.35;3.90;;;12.80;70.00;;;;;;5093377;28;20059;-78
2022/10/06 01:38:03;;;;;;;7.97;3.80;;;12.90;70.10;;;;;;5093637;28;20044;-77
2022/10/06 01:40:29;;;;;;;9.15;3.47;;;12.90;70.20;;;;;;5093762;28;20032;-78
2022/10/06 01:42:55;;;;;;;6.18;3.33;;;12.90;70.30;;;;;;5092340;28;20032;-79
2022/10/06 01:45:21;;;;;;;8.90;3.33;;;12.90;70.10;;;;;;5093195;28;20088;-73
2022/10/06 01:47:46;;;;;;;4.75;3.47;;;12.90;69.90;;;;;;5093488;28;20561;-74
2022/10/06 01:50:13;;;;;;;7.60;3.70;;;12.90;69.80;;;;;;5093521;28;20031;-75
2022/10/06 01:52:39;;;;;;;5.90;3.47;;;12.90;69.80;;;;;;5093610;28;20023;-76
2022/10/06 01:55:05;;;;;;;14.38;3.30;;;12.90;69.80;;;;;;5093508;28;20020;-80
2022/10/06 01:57:37;;;;;;;5.85;2.85;;;12.90;69.80;;;;;;5093366;28;20099;-76
2022/10/06 02:00:03;;;;;;;5.63;3.13;;;12.90;69.60;;;;;;5093450;28;20013;-74
2022/10/06 02:02:30;;;;;;;11.02;3.28;;;12.90;69.40;;;;;;5093375;28;20012;-77
2022/10/06 02:04:56;;;;;;;5.53;2.60;;;12.90;69.40;;;;;;5091561;28;20050;-75
2022/10/06 02:07:21;;;;;;;5.80;2.75;;;12.80;69.20;;;;;;5093246;28;20499;-72
2022/10/06 02:09:47;;;;;;;10.73;3.10;;;12.90;69.20;;;;;;5108554;28;20152;-75
2022/10/06 02:12:13;;;;;;;12.23;3.13;;;12.80;69.10;;;;;;5093348;28;20024;-75
2022/10/06 02:14:39;;;;;;;4.38;2.78;;;12.80;69.10;;;;;;5108860;28;20028;-79
2022/10/06 02:17:05;;;;;;;6.63;2.63;;;12.80;69.00;;;;;;5092983;28;20472;-80
2022/10/06 02:19:31;;;;;;;5.95;3.15;;;12.80;69.00;;;;;;5081819;28;20020;-77
2022/10/06 02:21:57;;;;;;;9.50;3.00;;;12.70;68.90;;;;;;5077454;28;20016;-78
2022/10/06 02:24:23;;;;;;;6.40;3.15;;;12.70;68.90;;;;;;5093152;28;20063;-76
2022/10/06 02:26:49;;;;;;;4.88;2.92;;;12.70;69.00;;;;;;5092959;28;20490;-77
2022/10/06 02:29:15;;;;;;;4.13;2.88;;;12.70;69.00;;;;;;5093202;28;20099;-76
2022/10/06 02:31:40;;;;;;;5.20;3.00;;;12.70;69.10;;;;;;5093151;28;20028;-76
2022/10/06 02:34:06;;;;;;;11.23;2.72;;;12.60;69.00;;;;;;5092877;28;20067;-75
2022/10/06 02:36:32;;;;;;;6.50;2.58;;;12.60;69.00;;;;;;5093640;28;20065;-77
2022/10/06 02:38:58;;;;;;;4.10;2.55;;;12.60;69.10;;;;;;5097375;28;20020;-74
2022/10/06 02:41:24;;;;;;;6.30;3.17;;;12.60;69.10;;;;;;5095591;28;20023;-77
2022/10/06 02:43:54;;;;;;;9.15;3.10;;;12.60;69.20;;;;;;5095828;28;20043;-76
2022/10/06 02:46:19;;;;;;;3.72;2.60;;;12.60;69.20;;;;;;5096886;28;20044;-77
2022/10/06 02:48:45;;;;;;;4.43;2.67;;;12.60;69.40;;;;;;5097249;28;20028;-75
2022/10/06 02:51:14;;;;;;;4.55;3.17;;;12.60;69.40;;;;;;5097096;28;20478;-77
2022/10/06 02:53:41;;;;;;;6.20;2.72;;;12.50;69.40;;;;;;5096966;28;20401;-74
2022/10/06 02:56:16;;;;;;;5.53;3.03;;;12.50;69.30;;;;;;5096874;28;20023;-79
2022/10/06 02:58:43;;;;;;;4.50;2.83;;;12.50;69.30;;;;;;5096711;28;20043;-77
2022/10/06 03:01:18;;;;;;;5.95;2.78;;;12.50;69.30;;;;;;5096928;28;20023;-78
2022/10/06 03:03:47;;;;;;;5.95;3.35;;;12.50;69.30;;;;;;5095275;28;20024;-80
2022/10/06 03:06:21;;;;;;;6.28;2.53;;;12.50;69.30;;;;;;5096909;28;20059;-77
2022/10/06 03:08:48;;;;;;;8.23;3.63;;;12.40;69.30;;;;;;5096777;28;20138;-76
2022/10/06 03:11:15;;;;;;;10.60;3.30;;;12.40;69.30;;;;;;5096756;28;20026;-75
2022/10/06 03:13:40;;;;;;;5.65;3.15;;;12.40;69.30;;;;;;5096579;28;20034;-75
2022/10/06 03:16:26;;;;;;;7.55;2.90;;;12.40;69.40;;;;;;5096416;28;20027;-77
2022/10/06 03:18:54;;;;;;;4.10;3.00;;;12.40;69.50;;;;;;5096565;28;20027;-73
2022/10/06 03:21:22;;;;;;;6.45;2.78;;;12.40;69.40;;;;;;5112093;28;20487;-76
2022/10/06 03:23:50;;;;;;;4.82;2.90;;;12.40;69.50;;;;;;5096392;28;20028;-75
2022/10/06 03:26:19;;;;;;;6.60;3.40;;;12.40;69.60;;;;;;5096306;28;20038;-77
2022/10/06 03:28:45;;;;;;;5.63;2.80;;;12.30;69.70;;;;;;5096140;28;20050;-79
2022/10/06 03:31:12;;;;;;;7.75;3.00;;;12.30;69.70;;;;;;5094384;28;20028;-74
2022/10/06 03:33:37;;;;;;;4.18;3.03;;;12.30;69.70;;;;;;5095718;28;20434;-77
2022/10/06 03:36:19;;;;;;;6.32;2.67;;;12.30;69.70;;;;;;5095742;28;20085;-78
2022/10/06 03:38:45;;;;;;;8.20;2.95;;;12.30;69.70;;;;;;5095829;28;20013;-78
2022/10/06 03:41:23;;;;;;;5.88;3.20;;;12.30;69.70;;;;;;5095871;28;20105;-73
2022/10/06 03:43:50;;;;;;;6.32;2.60;;;12.30;69.80;;;;;;5096005;28;20440;-74
2022/10/06 03:46:22;;;;;;;4.95;2.92;;;12.30;69.70;;;;;;5095574;28;20123;-75
2022/10/06 03:48:51;;;;;;;5.25;3.17;;;12.30;69.80;;;;;;5095582;28;20020;-75
2022/10/06 03:51:26;;;;;;;4.65;3.33;;;12.30;69.90;;;;;;5095878;28;20020;-79
2022/10/06 03:53:52;;;;;;;6.78;3.22;;;12.30;70.00;;;;;;5095872;28;20073;-76
2022/10/06 03:56:18;;;;;;;9.05;3.58;;;12.30;70.00;;;;;;5095667;28;20050;-78
2022/10/06 03:58:47;;;;;;;7.18;3.40;;;12.30;70.00;;;;;;5095724;28;20016;-78
2022/10/06 04:01:22;;;;;;;10.30;3.47;;;12.30;70.00;;;;;;5095516;28;20497;-74
2022/10/06 04:03:48;;;;;;;11.27;3.45;;;12.30;70.00;;;;;;5095480;28;20020;-76
2022/10/06 04:06:17;;;;;;;12.63;3.08;;;12.30;70.30;;;;;;5095215;28;20101;-78
2022/10/06 04:08:44;;;;;;;5.30;3.25;;;12.20;70.50;;;;;;5094114;28;20035;-74
2022/10/06 04:11:17;;;;;;;16.58;4.38;;;12.20;70.50;;;;;;5095579;28;20028;-78
2022/10/06 04:13:44;;;;;;;5.47;3.03;;;12.20;70.60;;;;;;5095559;28;20031;-78
2022/10/06 04:16:14;;;;;;;5.38;3.28;;;12.20;70.60;;;;;;5095274;28;20031;-72
2022/10/06 04:18:41;;;;;;;4.32;2.83;;;12.30;70.60;;;;;;5092203;28;20048;-78
2022/10/06 04:21:07;;;;;;;5.53;3.10;;;12.20;70.40;;;;;;5095174;28;20024;-74
2022/10/06 04:23:35;;;;;;;5.47;3.25;;;12.20;70.30;;;;;;5093465;28;20058;-75
2022/10/06 04:26:05;;;;;;;11.55;3.10;;;12.20;70.40;;;;;;5095044;28;20393;-73
2022/10/06 04:28:31;;;;;;;7.05;3.05;;;12.20;70.50;;;;;;5095122;28;20039;-75
2022/10/06 04:31:00;;;;;;;4.95;3.30;;;12.20;70.50;;;;;;5094992;28;20028;-75
2022/10/06 04:33:27;;;;;;;10.77;3.20;;;12.20;70.70;;;;;;5094820;28;20485;-74
2022/10/06 04:35:57;;;;;;;10.90;3.90;;;12.20;70.70;;;;;;5094906;28;20035;-75
2022/10/06 04:38:23;;;;;;;8.88;3.65;;;12.20;70.60;;;;;;5094932;28;20099;-76
2022/10/06 04:40:49;;;;;;;6.47;3.53;;;12.20;70.60;;;;;;5093636;28;20109;-75
2022/10/06 04:43:15;;;;;;;8.80;3.88;;;12.20;70.60;;;;;;5094638;28;20107;-77
2022/10/06 04:45:40;;;;;;;11.10;3.95;;;12.20;70.60;;;;;;5093004;28;20082;-79
2022/10/06 04:48:06;;;;;;;5.93;3.97;;;12.20;70.60;;;;;;5094703;28;20028;-74
2022/10/06 04:50:32;;;;;;;7.40;3.67;;;12.10;70.60;;;;;;5094551;28;20380;-78
2022/10/06 04:52:58;;;;;;;7.03;3.97;;;12.20;70.60;;;;;;5094571;28;20034;-77
2022/10/06 04:55:23;;;;;;;8.80;3.60;;;12.20;70.60;;;;;;5094323;28;20035;-80
2022/10/06 04:57:49;;;;;;;5.88;3.55;;;12.10;70.60;;;;;;5094457;28;20073;-74
2022/10/06 05:00:24;;;;;;;4.75;3.08;;;12.10;70.60;;;;;;5093435;28;20035;-78
2022/10/06 05:02:54;;;;;;;9.43;3.70;;;12.10;70.50;;;;;;5094186;28;20216;-75
2022/10/06 05:05:20;;;;;;;7.63;3.50;;;12.10;70.60;;;;;;5094103;28;20062;-76
2022/10/06 05:07:46;;;;;;;4.28;2.92;;;12.10;70.60;;;;;;5109830;28;20059;-74
2022/10/06 05:10:12;;;;;;;6.28;3.40;;;12.10;70.70;;;;;;5094357;28;20047;-76
2022/10/06 05:12:38;;;;;;;8.38;3.65;;;12.10;70.60;;;;;;5094507;28;20024;-78
2022/10/06 05:15:04;;;;;;;5.63;3.10;;;12.10;70.70;;;;;;5094125;28;20048;-75
2022/10/06 05:17:30;;;;;;;8.15;3.50;;;12.10;70.60;;;;;;5094109;28;20020;-72
2022/10/06 05:19:55;;;;;;;6.13;3.28;;;12.10;70.60;;;;;;5094088;28;20462;-76
2022/10/06 05:22:21;;;;;;;8.07;3.70;;;12.10;70.70;;;;;;5094128;28;20020;-76
2022/10/06 05:24:52;;;;;;;7.85;3.75;;;12.10;70.70;;;;;;5094158;28;20381;-75
2022/10/06 05:27:19;;;;;;;6.13;4.00;;;12.10;70.70;;;;;;5094096;28;20016;-75
2022/10/06 05:29:45;;;;;;;4.97;2.90;;;12.10;70.80;;;;;;5094057;28;20334;-77
2022/10/06 05:32:11;;;;;;;5.28;3.90;;;12.10;70.80;;;;;;5093968;28;20123;-76
2022/10/06 05:34:37;;;;;;;8.75;3.70;;;12.10;70.80;;;;;;5093830;28;20107;-73
2022/10/06 05:37:03;;;;;;;8.02;3.55;;;12.10;70.90;;;;;;5093427;28;20046;-76
2022/10/06 05:39:28;;;;;;;6.15;3.65;;;12.10;71.00;;;;;;5093957;28;20031;-77
2022/10/06 05:41:54;;;;;;;6.85;3.55;;;12.10;71.10;;;;;;5093699;28;20024;-73
2022/10/06 05:44:20;;;;;;;13.57;4.10;;;12.20;71.30;;;;;;5093794;28;20032;-76
2022/10/06 05:46:46;;;;;;;9.43;3.80;;;12.20;71.40;;;;;;5092289;28;20067;-73
2022/10/06 05:49:15;;;;;;;10.68;4.57;;;12.20;71.40;;;;;;5093659;28;20445;-74
2022/10/06 05:51:47;;;;;;;6.82;3.80;;;12.30;71.40;;;;;;5093614;28;20031;-75
2022/10/06 05:54:13;;;;;;;18.77;4.30;;;12.30;71.40;;;;;;5093587;28;20024;-75
2022/10/06 05:56:39;;;;;;;7.55;3.20;;;12.30;71.30;;;;;;5092199;28;20027;-74
2022/10/06 05:59:05;;;;;;;10.73;4.13;;;12.40;71.30;;;;;;5092200;28;20051;-77
2022/10/06 06:01:33;;;;;;;10.32;3.55;;;12.40;71.30;;;;;;5081648;28;20056;-76
2022/10/06 06:04:12;;;;;;;6.32;3.15;;;12.50;71.30;;;;;;5078427;28;20381;-76
2022/10/06 06:06:43;;;;;;;27.50;5.65;;;12.50;71.30;;;;;;5086003;28;20355;-74
2022/10/06 06:09:15;;;;;;;33.80;6.68;;;12.50;71.30;;;;;;5084557;28;20024;-74
2022/10/06 06:11:53;;;;;;;30.38;8.07;;;12.50;71.20;;;;;;5081705;28;20020;-78
2022/10/06 06:17:05;;;;;;;12.98;4.63;;;12.60;71.20;;;;;;5085597;28;20100;-77
2022/10/06 06:19:31;;;;;;;6.25;3.72;;;12.60;71.20;;;;;;5082291;28;20476;-78
2022/10/06 06:21:56;;;;;;;6.90;3.78;;;12.60;71.20;;;;;;5080944;28;20028;-74
2022/10/06 06:24:22;;;;;;;7.10;3.20;;;12.70;71.10;;;;;;5083455;28;20020;-76
2022/10/06 06:26:48;;;;;;;6.05;3.47;;;12.70;71.20;;;;;;5075222;28;20035;-74
2022/10/06 06:29:13;;;;;;;17.85;5.00;;;12.80;71.30;;;;;;5081462;28;20523;-76
2022/10/06 06:31:42;;;;;;;8.45;4.10;;;12.80;71.40;;;;;;5092072;28;20028;-77
2022/10/06 06:34:10;;;;;;;9.48;3.72;;;12.90;71.50;;;;;;5093159;28;20031;-76
2022/10/06 06:36:42;;;;;;;11.75;4.30;;;13.00;71.60;;;;;;5092691;28;20065;-78
2022/10/06 06:39:09;;;;;;;16.88;4.63;;;13.00;71.50;;;;;;5086406;28;20078;-76
2022/10/06 06:41:46;;;;;;;9.95;3.72;;;13.10;71.40;;;;;;5072975;28;20040;-78
2022/10/06 06:44:12;;;;;;;12.95;4.15;;;13.20;71.40;;;;;;5072902;28;20071;-78
2022/10/06 06:46:41;;;;;;;8.35;3.50;;;13.30;71.20;;;;;;5075210;28;20124;-77
2022/10/06 06:49:08;;;;;;;9.32;4.03;;;13.30;71.00;;;;;;5097637;28;20023;-75
2022/10/06 06:51:36;;;;;;;7.18;3.58;;;13.40;71.00;;;;;;5104959;28;20016;-76
2022/10/06 06:54:03;;;;;;;7.10;3.33;;;13.50;71.00;;;;;;5097006;28;20020;-73
2022/10/06 06:56:37;;;;;;;6.68;3.78;;;13.60;70.90;;;;;;5092747;28;20023;-73
2022/10/06 06:59:12;;;;;;;11.30;4.53;;;13.60;70.80;;;;;;5092726;28;20090;-73
2022/10/06 07:01:46;;;;;;;20.52;4.45;;;13.70;70.60;;;;;;5079283;28;20410;-74
2022/10/06 07:04:14;;;;;;;9.95;3.78;;;13.80;70.50;;;;;;5084216;28;20537;-77
2022/10/06 07:06:43;;;;;;;8.55;4.00;;;13.90;70.60;;;;;;5081608;28;20043;-77
2022/10/06 07:09:09;;;;;;;10.45;4.00;;;13.90;70.50;;;;;;5082491;28;20024;-77
2022/10/06 07:11:37;;;;;;;9.10;3.78;;;14.10;70.30;;;;;;5080627;28;20020;-78
2022/10/06 07:14:06;;;;;;;8.88;3.38;;;14.10;70.20;;;;;;5081495;28;20017;-76
2022/10/06 07:25:07;;;;;;;7.43;3.50;;;14.50;69.00;;;;;;5086738;28;20035;-77
2022/10/06 07:27:35;;;;;;;7.55;3.90;;;14.60;69.00;;;;;;5084190;28;20021;-76
2022/10/06 07:30:03;;;;;;;6.20;3.67;;;14.60;68.90;;;;;;5087844;28;20636;-76
2022/10/06 07:32:30;;;;;;;6.57;3.67;;;14.70;68.90;;;;;;5085541;28;20432;-76
2022/10/06 07:34:57;;;;;;;11.43;4.38;;;14.70;68.80;;;;;;5086115;28;20072;-76
2022/10/06 07:37:24;;;;;;;16.50;5.10;;;14.80;68.60;;;;;;5084854;28;20494;-76
2022/10/06 07:39:49;;;;;;;12.00;5.57;;;14.80;68.40;;;;;;5083184;28;20047;-75
2022/10/06 07:42:17;;;;;;;10.27;6.10;;;14.80;68.40;;;;;;5089992;28;20059;-71
2022/10/06 07:47:31;;;;;;;12.02;5.72;;;15.00;68.50;;;;;;5075883;28;20524;-78
2022/10/06 07:49:57;;;;;;;12.90;5.65;;;15.00;68.50;;;;;;5075674;28;20036;-78
2022/10/06 07:52:24;;;;;;;18.35;8.40;;;15.10;68.50;;;;;;5074425;28;20028;-76
2022/10/06 07:54:50;;;;;;;24.40;9.07;;;15.10;68.20;;;;;;5079896;28;20046;-79
2022/10/06 07:57:15;;;;;;;28.23;8.63;;;15.20;67.80;;;;;;5096104;28;20470;-77
2022/10/06 07:59:41;;;;;;;19.45;8.18;;;15.20;67.30;;;;;;5095575;28;20543;-75
2022/10/06 08:02:08;;;;;;;16.80;8.05;;;15.20;67.30;;;;;;5095824;28;20554;-77
2022/10/06 08:04:34;;;;;;;17.23;8.43;;;15.30;67.40;;;;;;5096067;28;20477;-76
2022/10/06 08:07:00;;;;;;;23.23;9.10;;;15.40;67.60;;;;;;5094606;28;20036;-79
2022/10/06 08:09:26;;;;;;;21.33;10.23;;;15.40;67.60;;;;;;5095878;28;20024;-78
2022/10/06 08:11:52;;;;;;;17.23;9.70;;;15.50;67.50;;;;;;5094574;28;20032;-79
2022/10/06 08:14:18;;;;;;;21.25;10.65;;;15.60;67.60;;;;;;5094715;28;20097;-78
2022/10/06 08:16:43;;;;;;;20.30;10.38;;;15.70;67.70;;;;;;5095626;28;20087;-77
2022/10/06 08:19:10;;;;;;;23.70;10.57;;;15.80;67.50;;;;;;5095866;28;20034;-76
2022/10/06 08:21:37;;;;;;;24.90;10.30;;;15.80;67.10;;;;;;5095384;28;20020;-78
2022/10/06 08:24:03;;;;;;;19.38;10.07;;;15.90;67.10;;;;;;5095452;28;20094;-79
2022/10/06 08:26:30;;;;;;;20.92;9.75;;;16.00;67.20;;;;;;5095682;28;20032;-76
2022/10/06 08:29:01;;;;;;;19.65;10.57;;;16.10;67.70;;;;;;5095210;28;20103;-76
2022/10/06 08:31:29;;;;;;;20.08;10.45;;;16.20;66.50;;;;;;5095110;28;20478;-73
2022/10/06 08:33:56;;;;;;;19.13;10.73;;;16.20;66.20;;;;;;5094375;28;20036;-74
2022/10/06 08:36:25;;;;;;;21.88;10.40;;;16.40;66.30;;;;;;5095194;28;20024;-74
2022/10/06 08:38:51;;;;;;;27.42;12.93;;;16.40;66.00;;;;;;5095009;28;20536;-76
2022/10/06 08:41:28;;;;;;;28.60;12.70;;;16.50;65.60;;;;;;5090488;28;20056;-73
2022/10/06 08:44:17;;;;;;;32.80;13.00;;;16.60;65.40;;;;;;5074959;28;20020;-74
2022/10/06 08:47:06;;;;;;;22.55;11.05;;;16.60;65.10;;;;;;5076352;28;20040;-78
2022/10/06 08:49:43;;;;;;;23.73;11.32;;;16.70;65.10;;;;;;5095024;28;20024;-77
2022/10/06 08:52:36;;;;;;;24.77;12.18;;;16.80;65.00;;;;;;5095171;28;20027;-75
2022/10/06 08:55:34;;;;;;;32.40;13.05;;;16.90;64.70;;;;;;5094510;28;20051;-78
2022/10/06 08:58:02;;;;;;;22.90;12.73;;;17.00;64.60;;;;;;5095035;28;20094;-79
2022/10/06 09:00:32;;;;;;;26.83;13.70;;;17.00;63.90;;;;;;5094486;28;20076;-76
2022/10/06 09:02:59;;;;;;;27.20;13.02;;;17.10;63.80;;;;;;5094686;28;20024;-80
2022/10/06 09:05:28;;;;;;;20.20;11.25;;;17.10;63.70;;;;;;5094863;28;20055;-80
2022/10/06 09:08:24;;;;;;;24.35;12.30;;;17.10;63.60;;;;;;5094833;28;20023;-77
2022/10/06 09:11:32;;;;;;;26.27;12.27;;;17.20;63.30;;;;;;5074568;28;20090;-77
2022/10/06 09:14:08;;;;;;;26.48;11.85;;;17.30;63.10;;;;;;5076756;28;20046;-77
2022/10/06 09:16:40;;;;;;;19.95;11.15;;;17.30;62.70;;;;;;5094517;28;20016;-77
2022/10/06 09:19:29;;;;;;;39.30;10.77;;;17.40;62.80;;;;;;5094311;28;20466;-74
2022/10/06 09:21:55;;;;;;;17.27;9.52;;;17.50;63.10;;;;;;5083553;28;20046;-78
2022/10/06 09:24:37;;;;;;;26.88;10.05;;;17.60;63.30;;;;;;5092974;28;20028;-77
2022/10/06 09:27:22;;;;;;;25.00;9.98;;;17.70;63.20;;;;;;5094662;28;20477;-77
2022/10/06 09:29:49;;;;;;;21.70;9.60;;;17.80;63.00;;;;;;5093008;28;20397;-78
2022/10/06 09:32:17;;;;;;;18.65;9.05;;;17.90;63.00;;;;;;5094498;28;20031;-77
2022/10/06 09:34:52;;;;;;;20.10;8.27;;;18.00;63.10;;;;;;5094186;28;20477;-79
2022/10/06 09:37:18;;;;;;;14.38;6.88;;;18.10;63.20;;;;;;5094572;28;20020;-76
2022/10/06 09:39:49;;;;;;;20.00;7.38;;;18.20;63.50;;;;;;5093164;28;20111;-80
2022/10/06 09:42:20;;;;;;;16.80;7.70;;;18.30;63.60;;;;;;5094168;28;20024;-79
2022/10/06 09:44:50;;;;;;;23.75;7.43;;;18.50;63.50;;;;;;5093033;28;20046;-79
2022/10/06 09:47:37;;;;;;;24.48;7.28;;;18.60;62.90;;;;;;5094145;28;20048;-78
2022/10/06 09:50:21;;;;;;;24.63;7.57;;;18.80;62.90;;;;;;5096768;28;20036;-76
2022/10/06 09:52:56;;;;;;;15.98;6.55;;;18.90;61.70;;;;;;5095996;28;20038;-76
2022/10/06 09:55:40;;;;;;;18.33;7.15;;;19.00;61.60;;;;;;5093046;28;20024;-74
2022/10/06 09:58:22;;;;;;;11.43;5.70;;;19.10;60.90;;;;;;5094153;28;20019;-77
2022/10/06 10:00:52;;;;;;;11.48;5.55;;;19.20;60.90;;;;;;5092152;28;20028;-78
2022/10/06 10:03:19;;;;;;;15.93;5.15;;;19.20;60.60;;;;;;5093416;28;20034;-77
2022/10/06 10:05:53;;;;;;;12.57;5.10;;;19.30;60.90;;;;;;5093208;28;20481;-78
2022/10/06 10:08:26;;;;;;;8.38;4.63;;;19.30;60.80;;;;;;5093300;28;20040;-78
2022/10/06 10:11:06;;;;;;;11.70;4.82;;;19.40;61.10;;;;;;5093248;28;20480;-75
2022/10/06 10:13:41;;;;;;;7.72;4.35;;;19.50;61.10;;;;;;5093132;28;20035;-79
2022/10/06 10:16:10;;;;;;;8.63;4.22;;;19.60;60.40;;;;;;5093456;28;20024;-82
2022/10/06 10:18:36;;;;;;;9.57;4.13;;;19.60;60.30;;;;;;5093357;28;20146;-79
2022/10/06 10:21:09;;;;;;;6.30;3.17;;;19.70;60.60;;;;;;5104215;28;20100;-77
2022/10/06 10:23:54;;;;;;;6.80;3.70;;;19.70;60.80;;;;;;5090377;28;20030;-79
2022/10/06 10:26:31;;;;;;;7.13;4.10;;;19.80;60.50;;;;;;5086221;28;20034;-75
2022/10/06 10:29:21;;;;;;;6.93;3.58;;;19.80;60.30;;;;;;5090946;28;20027;-76
2022/10/06 10:32:16;;;;;;;7.82;3.30;;;19.90;60.30;;;;;;5099164;28;20055;-79
2022/10/06 10:35:01;;;;;;;5.15;2.97;;;20.00;60.50;;;;;;5092932;28;20024;-77
2022/10/06 10:37:27;;;;;;;10.60;3.80;;;20.00;60.50;;;;;;5095184;28;20124;-77
2022/10/06 10:40:14;;;;;;;7.15;3.83;;;20.20;60.50;;;;;;5086301;28;20206;-77
2022/10/06 10:43:03;;;;;;;5.80;3.00;;;20.20;60.50;;;;;;5098355;28;20055;-77
2022/10/06 10:45:35;;;;;;;4.70;2.63;;;20.30;60.10;;;;;;5108236;28;20051;-78
2022/10/06 10:48:10;;;;;;;4.38;2.80;;;20.40;59.70;;;;;;5099670;28;20089;-78
2022/10/06 10:50:50;;;;;;;7.95;3.10;;;20.40;59.70;;;;;;5090538;28;20040;-76
2022/10/06 10:53:36;;;;;;;11.82;3.72;;;20.50;59.40;;;;;;5088095;28;20016;-79
2022/10/06 10:56:02;;;;;;;7.88;2.95;;;20.60;59.30;;;;;;5101665;28;20024;-77
2022/10/06 10:58:32;;;;;;;7.95;3.65;;;20.70;58.70;;;;;;5110031;28;20038;-76
2022/10/06 11:01:19;;;;;;;15.75;5.57;;;20.80;58.60;;;;;;5106469;28;20050;-76
2022/10/06 11:03:55;;;;;;;13.80;3.20;;;20.80;58.20;;;;;;5105083;28;20023;-77
2022/10/06 11:07:15;;;;;;;4.28;3.00;;;20.90;57.50;;;;;;5101799;28;20052;-75
2022/10/06 11:09:57;;;;;;;7.55;3.38;;;21.00;57.50;;;;;;5046902;28;20473;-76
2022/10/06 11:12:50;;;;;;;14.00;3.60;;;21.10;56.80;;;;;;5047378;28;20041;-79
2022/10/06 11:15:20;;;;;;;10.25;3.80;;;21.10;56.50;;;;;;5053312;28;20032;-80
2022/10/06 11:17:49;;;;;;;11.50;3.67;;;21.20;56.00;;;;;;5054028;28;20037;-80
2022/10/06 11:20:54;;;;;;;11.63;4.00;;;21.30;55.80;;;;;;5054367;28;20421;-76
2022/10/06 11:23:21;;;;;;;;;;;21.40;56.10;;;;;;5054448;28;20053;-74
2022/10/06 11:26:23;;;;;;;10.65;3.20;;;21.40;57.20;;;;;;5053543;28;19954;-82
2022/10/06 11:28:55;;;;;;;5.95;2.95;;;21.50;56.20;;;;;;5037045;28;20144;-75
2022/10/06 11:31:28;;;;;;;5.78;2.85;;;21.60;55.60;;;;;;5036798;28;20211;-75
2022/10/06 11:33:57;;;;;;;12.85;3.78;;;21.70;55.50;;;;;;5053637;28;20116;-76
2022/10/06 11:36:48;;;;;;;12.25;3.95;;;21.70;55.20;;;;;;5052172;28;20541;-77
2022/10/06 11:39:32;;;;;;;7.13;2.80;;;21.80;55.40;;;;;;5053448;28;20025;-79
2022/10/06 11:42:34;;;;;;;8.63;2.80;;;21.80;55.20;;;;;;5053788;28;20514;-80
2022/10/06 11:45:15;;;;;;;18.38;3.60;;;21.90;55.50;;;;;;5094521;28;20065;-83
2022/10/06 11:48:17;;;;;;;8.75;3.20;;;22.00;55.20;;;;;;5096299;28;20048;-75
2022/10/06 11:50:47;;;;;;;8.25;2.83;;;22.10;55.00;;;;;;5094461;28;20063;-75
2022/10/06 11:53:35;;;;;;;4.05;2.55;;;22.10;54.70;;;;;;5096928;28;20020;-78
2022/10/06 11:56:16;;;;;;;9.77;2.45;;;22.20;54.70;;;;;;5096096;28;20034;-79
2022/10/06 11:58:51;;;;;;;12.00;3.08;;;22.30;54.50;;;;;;5076768;28;20063;-76
2022/10/06 12:01:42;;;;;;;9.30;3.22;;;22.30;54.40;;;;;;5096192;28;20028;-80
2022/10/06 12:04:08;;;;;;;4.50;2.88;;;22.40;54.30;;;;;;5094258;28;20548;-76
2022/10/06 12:06:46;;;;;;;10.45;2.83;;;22.40;54.00;;;;;;5095147;28;20102;-80
2022/10/06 12:09:24;;;;;;;10.63;3.30;;;22.50;54.20;;;;;;5095826;28;20456;-77
2022/10/06 12:12:13;;;;;;;6.05;3.10;;;22.50;53.90;;;;;;5094213;28;20028;-76
2022/10/06 12:14:47;;;;;;;12.00;3.10;;;22.60;54.10;;;;;;5053922;28;20051;-78
2022/10/06 12:17:31;;;;;;;4.97;2.70;;;22.70;53.50;;;;;;5094831;28;20481;-79
2022/10/06 12:20:16;;;;;;;9.52;3.08;;;22.70;53.30;;;;;;5095862;28;20026;-77
2022/10/06 12:22:54;;;;;;;4.18;2.38;;;22.80;53.20;;;;;;5094274;28;20024;-78
2022/10/06 12:25:34;;;;;;;8.02;3.58;;;22.80;53.00;;;;;;5095976;28;20453;-76
2022/10/06 12:28:09;;;;;;;14.75;3.95;;;22.90;53.00;;;;;;5095863;28;20028;-79
2022/10/06 12:31:19;;;;;;;11.20;3.35;;;22.90;53.30;;;;;;5091803;28;20428;-80
2022/10/06 12:33:46;;;;;;;7.28;2.42;;;22.90;52.80;;;;;;5109251;27;20027;-79
2022/10/06 12:36:19;;;;;;;7.20;2.50;;;23.00;53.00;;;;;;5111118;28;20028;-75
2022/10/06 12:39:08;;;;;;;3.80;2.42;;;23.00;53.00;;;;;;5092666;28;20004;-83
2022/10/06 12:42:00;;;;;;;5.95;2.47;;;23.10;53.10;;;;;;5075077;28;20029;-78
2022/10/06 12:44:30;;;;;;;13.25;3.25;;;23.10;52.70;;;;;;5074880;28;20024;-78
2022/10/06 12:47:02;;;;;;;5.72;2.58;;;23.20;52.60;;;;;;5074541;28;20115;-74
2022/10/06 12:49:39;;;;;;;7.68;2.83;;;23.20;52.10;;;;;;5090380;28;20069;-74
2022/10/06 12:52:30;;;;;;;7.53;2.45;;;23.30;51.90;;;;;;5095020;28;20016;-76
2022/10/06 12:55:26;;;;;;;10.60;3.30;;;23.30;52.00;;;;;;5091602;28;20036;-77
2022/10/06 12:57:53;;;;;;;3.83;2.03;;;23.30;51.80;;;;;;5094962;28;20099;-76
2022/10/06 13:00:42;;;;;;;7.47;2.45;;;23.40;52.00;;;;;;5094314;28;20466;-75
2022/10/06 13:03:23;;;;;;;6.32;2.40;;;23.40;52.30;;;;;;5089043;28;20047;-76
2022/10/06 13:05:59;;;;;;;4.72;2.30;;;23.50;51.60;;;;;;5089999;28;20020;-79
2022/10/06 13:08:31;;;;;;;6.47;2.17;;;23.50;51.50;;;;;;5074390;28;20021;-80
2022/10/06 13:11:12;;;;;;;2.97;2.20;;;23.60;51.30;;;;;;5074339;28;20063;-75
2022/10/06 13:13:46;;;;;;;6.07;2.35;;;23.60;52.00;;;;;;5073044;28;20024;-80
2022/10/06 13:16:13;;;;;;;3.20;1.90;;;23.60;52.00;;;;;;5074278;28;20108;-75
2022/10/06 13:18:39;;;;;;;10.45;2.97;;;23.70;52.20;;;;;;5073902;28;20112;-78
2022/10/06 13:21:12;;;;;;;5.43;2.85;;;23.70;52.10;;;;;;5073672;28;20017;-76